Time;durP1;ratioP1;P1;durP2;ratioP2;P2;SDS_P1;SDS_P2;PMS_P1;PMS_P2;Temp;Humidity;BMP_temperature;BMP_pressure;BME280_temperature;BME280_humidity;BME280_pressure;Samples;Min_cycle;Max_cycle;Signal;HPM_P1;HPM_P2
2021/03/11 00:00:39;;;;;;;29.77;16.40;;;7.00;99.90;;;;;;5063096;28;20205;-64
2021/03/11 00:03:05;;;;;;;26.73;15.93;;;7.00;99.90;;;;;;5051017;28;20644;-64
2021/03/11 00:05:32;;;;;;;25.40;16.20;;;7.00;99.90;;;;;;5055993;28;20265;-65
2021/03/11 00:07:58;;;;;;;20.53;13.47;;;7.00;99.90;;;;;;5071031;28;20296;-65
2021/03/11 00:10:24;;;;;;;24.67;14.03;;;7.10;99.90;;;;;;5066542;28;20311;-65
2021/03/11 00:12:50;;;;;;;20.37;13.53;;;7.10;99.90;;;;;;5051291;28;20254;-64
2021/03/11 00:15:18;;;;;;;27.77;14.43;;;7.20;99.90;;;;;;5063170;28;20182;-64
2021/03/11 00:17:44;;;;;;;22.13;13.40;;;7.20;99.90;;;;;;5071048;28;20656;-65
2021/03/11 00:20:12;;;;;;;23.47;13.23;;;7.30;99.90;;;;;;5057876;28;20182;-65
2021/03/11 00:22:39;;;;;;;19.83;13.20;;;7.30;99.90;;;;;;5049591;28;20250;-64
2021/03/11 00:25:09;;;;;;;21.73;13.77;;;7.40;99.90;;;;;;5060148;28;20197;-65
2021/03/11 00:27:35;;;;;;;18.07;11.67;;;7.40;99.90;;;;;;5059486;28;20178;-63
2021/03/11 00:30:03;;;;;;;18.47;11.83;;;7.50;99.90;;;;;;5051730;28;20198;-64
2021/03/11 00:32:29;;;;;;;21.30;13.37;;;7.50;99.90;;;;;;5050875;28;20519;-64
2021/03/11 00:34:54;;;;;;;17.57;11.63;;;7.60;99.90;;;;;;5059159;28;20269;-64
2021/03/11 00:37:20;;;;;;;18.80;12.33;;;7.60;99.90;;;;;;5070807;28;20522;-65
2021/03/11 00:39:46;;;;;;;15.83;10.77;;;7.70;99.90;;;;;;5063706;28;20198;-64
2021/03/11 00:42:11;;;;;;;20.23;11.73;;;7.70;99.90;;;;;;5052857;28;20631;-63
2021/03/11 00:44:37;;;;;;;17.43;11.10;;;7.70;99.90;;;;;;5070670;28;20402;-63
2021/03/11 00:47:05;;;;;;;18.97;11.67;;;7.80;99.90;;;;;;5069840;28;20245;-64
2021/03/11 00:49:31;;;;;;;18.03;10.90;;;7.70;99.90;;;;;;5050233;28;20655;-64
2021/03/11 00:51:56;;;;;;;18.10;10.83;;;7.70;99.90;;;;;;5050399;28;20175;-65
2021/03/11 00:54:22;;;;;;;19.17;11.93;;;7.70;99.90;;;;;;5069572;28;20176;-63
2021/03/11 00:56:48;;;;;;;17.03;10.50;;;7.80;99.90;;;;;;5071996;28;20220;-64
2021/03/11 00:59:13;;;;;;;19.33;12.20;;;7.80;99.90;;;;;;5056679;28;20289;-65
2021/03/11 01:01:39;;;;;;;18.73;11.03;;;7.80;99.90;;;;;;5053559;28;20265;-64
2021/03/11 01:04:06;;;;;;;15.23;9.40;;;7.80;99.90;;;;;;5069323;28;20209;-63
2021/03/11 01:06:32;;;;;;;19.27;11.33;;;7.90;99.90;;;;;;5074102;28;20627;-63
2021/03/11 01:08:58;;;;;;;17.07;10.87;;;7.90;99.90;;;;;;5060079;28;20214;-63
2021/03/11 01:11:24;;;;;;;17.07;10.40;;;7.90;99.90;;;;;;5063525;28;20174;-64
2021/03/11 01:13:49;;;;;;;14.63;10.57;;;7.90;99.90;;;;;;5074082;28;20632;-64
2021/03/11 01:16:15;;;;;;;13.37;9.10;;;7.90;99.90;;;;;;5065445;28;20542;-64
2021/03/11 01:18:41;;;;;;;16.93;10.10;;;7.90;99.90;;;;;;5053902;28;20532;-64
2021/03/11 01:21:06;;;;;;;12.33;7.43;;;8.00;99.90;;;;;;5059769;28;20170;-64
2021/03/11 01:23:32;;;;;;;13.50;8.50;;;8.00;99.90;;;;;;5073818;28;20177;-65
2021/03/11 01:25:58;;;;;;;12.07;8.57;;;8.10;99.90;;;;;;5069399;28;20174;-64
2021/03/11 01:28:23;;;;;;;12.30;9.33;;;8.10;99.90;;;;;;5073644;28;20225;-64
2021/03/11 01:30:49;;;;;;;13.17;8.37;;;8.10;99.90;;;;;;5065942;28;20630;-63
2021/03/11 01:33:15;;;;;;;10.87;6.97;;;8.10;99.90;;;;;;5053778;28;20530;-64
2021/03/11 01:35:40;;;;;;;10.30;6.77;;;8.20;99.90;;;;;;5058885;28;20223;-64
2021/03/11 01:38:06;;;;;;;11.03;7.30;;;8.20;99.90;;;;;;5073464;28;20608;-64
2021/03/11 01:40:33;;;;;;;9.60;6.43;;;8.30;99.90;;;;;;5055701;28;20679;-65
2021/03/11 01:43:00;;;;;;;10.03;6.40;;;8.30;99.90;;;;;;5053522;28;20225;-64
2021/03/11 01:45:25;;;;;;;6.10;4.80;;;8.30;99.90;;;;;;5068597;28;20177;-63
2021/03/11 01:47:51;;;;;;;8.97;5.60;;;8.30;99.90;;;;;;5073300;28;20201;-64
2021/03/11 01:50:17;;;;;;;5.87;4.80;;;8.40;99.90;;;;;;5060255;28;20249;-64
2021/03/11 01:52:43;;;;;;;5.53;4.07;;;8.40;99.90;;;;;;5053398;28;20177;-64
2021/03/11 01:55:10;;;;;;;7.67;4.93;;;8.40;99.90;;;;;;5065154;28;20530;-64
2021/03/11 01:57:36;;;;;;;4.37;3.93;;;8.40;99.90;;;;;;5073333;28;20518;-64
2021/03/11 02:00:06;;;;;;;5.10;3.80;;;8.40;99.90;;;;;;5062354;28;20270;-64
2021/03/11 02:02:33;;;;;;;5.10;4.00;;;8.40;99.90;;;;;;5053027;28;20198;-64
2021/03/11 02:04:59;;;;;;;4.93;3.50;;;8.50;99.90;;;;;;5061975;28;20182;-64
2021/03/11 02:07:24;;;;;;;4.10;3.37;;;8.50;99.90;;;;;;5067132;28;20538;-65
2021/03/11 02:09:50;;;;;;;3.97;3.27;;;8.50;99.90;;;;;;5053762;28;20217;-64
2021/03/11 02:12:38;;;;;;;4.47;3.53;;;8.50;99.90;;;;;;5056264;28;20174;-64
2021/03/11 02:15:14;;;;;;;3.83;3.43;;;8.50;99.90;;;;;;5073101;28;20158;-65
2021/03/11 02:18:13;;;;;;;5.40;3.37;;;8.50;99.90;;;;;;5066074;28;20166;-63
2021/03/11 02:20:57;;;;;;;4.73;3.73;;;8.50;99.90;;;;;;5052367;28;20571;-64
2021/03/11 02:23:41;;;;;;;6.23;4.03;;;8.50;99.90;;;;;;5063965;28;20174;-64
2021/03/11 02:26:44;;;;;;;7.27;3.47;;;8.50;99.90;;;;;;5072336;28;20174;-65
2021/03/11 02:29:12;;;;;;;4.57;3.97;;;8.50;99.90;;;;;;5054887;28;20226;-65
2021/03/11 02:31:40;;;;;;;5.03;3.90;;;8.50;99.90;;;;;;5052285;28;20177;-63
2021/03/11 02:34:17;;;;;;;4.53;3.60;;;8.50;99.90;;;;;;5068746;28;20170;-65
2021/03/11 02:36:43;;;;;;;4.43;3.80;;;8.60;99.90;;;;;;5058023;28;20183;-65
2021/03/11 02:39:10;;;;;;;4.70;3.60;;;8.60;99.90;;;;;;5053017;28;20268;-65
2021/03/11 02:41:38;;;;;;;5.37;3.77;;;8.60;99.90;;;;;;5063857;28;20182;-65
2021/03/11 02:44:06;;;;;;;3.53;2.87;;;8.60;99.90;;;;;;5072254;28;20516;-64
2021/03/11 02:46:33;;;;;;;5.03;3.63;;;8.60;99.90;;;;;;5060625;28;20210;-64
2021/03/11 02:49:00;;;;;;;3.63;3.10;;;8.60;99.90;;;;;;5052021;28;20199;-64
2021/03/11 02:51:26;;;;;;;3.63;3.20;;;8.60;99.90;;;;;;5061424;28;20181;-64
2021/03/11 02:53:52;;;;;;;4.00;3.30;;;8.60;99.90;;;;;;5072185;28;20170;-64
2021/03/11 02:56:19;;;;;;;3.53;3.20;;;8.70;99.90;;;;;;5063592;28;20232;-64
2021/03/11 02:58:45;;;;;;;6.90;3.63;;;8.70;99.90;;;;;;5052156;28;20194;-64
2021/03/11 03:01:15;;;;;;;5.27;3.77;;;8.70;99.90;;;;;;5057792;28;20174;-64
2021/03/11 03:03:42;;;;;;;3.10;2.80;;;8.70;99.90;;;;;;5068179;28;20167;-65
2021/03/11 03:06:10;;;;;;;3.83;3.43;;;8.60;99.90;;;;;;5061287;28;20174;-64
2021/03/11 03:08:37;;;;;;;3.63;3.33;;;8.60;99.90;;;;;;5069561;28;20201;-63
2021/03/11 03:11:03;;;;;;;3.90;3.20;;;8.70;99.90;;;;;;5051634;28;20167;-65
2021/03/11 03:13:29;;;;;;;3.93;3.47;;;8.70;99.90;;;;;;5051995;28;20168;-64
2021/03/11 03:15:57;;;;;;;4.30;3.77;;;8.70;99.90;;;;;;5072102;28;20169;-64
2021/03/11 03:18:23;;;;;;;3.37;3.07;;;8.70;99.90;;;;;;5071560;28;20232;-65
2021/03/11 03:20:50;;;;;;;2.77;2.47;;;8.70;99.90;;;;;;5051696;28;20205;-65
2021/03/11 03:23:16;;;;;;;3.93;2.93;;;8.70;99.90;;;;;;5051845;28;20178;-65
2021/03/11 03:25:45;;;;;;;3.77;3.33;;;8.70;99.90;;;;;;5069705;28;20182;-64
2021/03/11 03:28:10;;;;;;;4.47;3.70;;;8.70;99.90;;;;;;5071408;28;20190;-65
2021/03/11 03:30:36;;;;;;;4.30;3.70;;;8.70;99.90;;;;;;5051486;28;20450;-63
2021/03/11 03:33:02;;;;;;;3.80;3.50;;;8.60;99.90;;;;;;5063572;28;20178;-64
2021/03/11 03:35:28;;;;;;;5.47;3.23;;;8.60;99.90;;;;;;5071159;28;20228;-64
2021/03/11 03:37:54;;;;;;;3.83;3.43;;;8.60;99.90;;;;;;5060915;28;20195;-65
2021/03/11 03:40:22;;;;;;;4.13;3.03;;;8.50;99.90;;;;;;5050889;28;20175;-64
2021/03/11 03:43:17;;;;;;;4.67;4.03;;;8.50;99.90;;;;;;5060161;28;20174;-64
2021/03/11 03:45:56;;;;;;;4.27;3.43;;;8.50;99.90;;;;;;5069908;28;20653;-64
2021/03/11 03:48:49;;;;;;;4.20;3.77;;;8.40;99.90;;;;;;5057914;28;20500;-65
2021/03/11 03:51:17;;;;;;;4.77;3.90;;;8.30;99.90;;;;;;5051360;28;20649;-64
2021/03/11 03:53:46;;;;;;;6.37;4.73;;;8.40;99.90;;;;;;5066296;28;20243;-64
2021/03/11 03:56:17;;;;;;;6.80;3.97;;;8.40;99.90;;;;;;5070888;28;20658;-64
2021/03/11 03:58:46;;;;;;;6.63;3.90;;;8.50;99.90;;;;;;5056345;28;20213;-65
2021/03/11 04:01:13;;;;;;;4.80;3.70;;;8.60;99.90;;;;;;5061456;28;20273;-65
2021/03/11 04:03:39;;;;;;;4.53;3.70;;;8.60;99.90;;;;;;5071080;28;20178;-65
2021/03/11 04:06:05;;;;;;;5.07;3.90;;;8.60;99.90;;;;;;5061280;28;20224;-64
2021/03/11 04:08:33;;;;;;;5.07;4.33;;;8.70;99.90;;;;;;5051024;28;20191;-65
2021/03/11 04:10:59;;;;;;;4.37;3.93;;;8.60;99.90;;;;;;5058889;28;20671;-64
2021/03/11 04:13:26;;;;;;;4.03;3.47;;;8.70;99.90;;;;;;5071054;28;20169;-65
2021/03/11 04:15:51;;;;;;;5.00;2.90;;;8.70;99.90;;;;;;5064332;28;20256;-64
2021/03/11 04:18:18;;;;;;;4.27;3.40;;;8.70;99.90;;;;;;5050866;28;20667;-65
2021/03/11 04:20:46;;;;;;;4.80;3.57;;;8.70;99.90;;;;;;5055215;28;20655;-65
2021/03/11 04:23:12;;;;;;;4.00;3.60;;;8.80;99.90;;;;;;5062544;28;20185;-65
2021/03/11 04:25:38;;;;;;;5.03;3.77;;;8.80;99.90;;;;;;5054354;28;20178;-64
2021/03/11 04:28:03;;;;;;;3.40;3.10;;;8.80;99.90;;;;;;5070843;28;20186;-65
2021/03/11 04:30:30;;;;;;;4.33;3.40;;;8.90;99.90;;;;;;5050718;28;20202;-64
2021/03/11 04:32:57;;;;;;;3.77;3.13;;;8.90;99.90;;;;;;5054428;28;20163;-63
2021/03/11 04:35:23;;;;;;;3.70;2.80;;;8.90;99.90;;;;;;5072803;28;20174;-65
2021/03/11 04:37:49;;;;;;;4.03;3.50;;;8.90;99.90;;;;;;5074918;28;20201;-64
2021/03/11 04:40:16;;;;;;;3.97;2.93;;;8.90;99.90;;;;;;5057547;28;20174;-64
2021/03/11 04:42:42;;;;;;;3.70;3.23;;;8.90;99.90;;;;;;5054065;28;20178;-65
2021/03/11 04:45:10;;;;;;;3.43;2.90;;;8.90;99.90;;;;;;5068162;28;20178;-64
2021/03/11 04:47:37;;;;;;;3.67;2.90;;;8.90;99.90;;;;;;5074474;28;20687;-63
2021/03/11 04:50:05;;;;;;;3.63;3.33;;;9.00;99.90;;;;;;5060261;28;20203;-64
2021/03/11 04:52:33;;;;;;;3.43;2.60;;;9.00;99.90;;;;;;5054340;28;20163;-65
2021/03/11 04:55:00;;;;;;;3.60;2.53;;;9.00;99.90;;;;;;5066937;28;20414;-63
2021/03/11 04:57:27;;;;;;;2.70;2.47;;;9.00;99.90;;;;;;5065457;28;20659;-65
2021/03/11 04:59:57;;;;;;;3.50;2.80;;;9.00;99.90;;;;;;5054188;28;20480;-64
2021/03/11 05:02:26;;;;;;;3.57;2.60;;;9.00;99.90;;;;;;5061026;28;20253;-64
2021/03/11 05:04:53;;;;;;;3.40;2.90;;;9.00;99.90;;;;;;5074342;28;20162;-64
2021/03/11 05:07:19;;;;;;;2.80;2.47;;;9.00;99.90;;;;;;5067410;28;20184;-64
2021/03/11 05:09:45;;;;;;;3.00;2.77;;;9.00;99.90;;;;;;5053944;28;20584;-63
2021/03/11 05:12:11;;;;;;;3.37;2.33;;;9.00;99.90;;;;;;5058553;28;20170;-65
2021/03/11 05:14:36;;;;;;;4.93;2.77;;;9.00;99.90;;;;;;5074003;28;20169;-65
2021/03/11 05:17:02;;;;;;;3.20;2.73;;;9.10;99.90;;;;;;5070793;28;20587;-64
2021/03/11 05:19:27;;;;;;;3.80;3.17;;;9.10;99.90;;;;;;5053818;28;20195;-64
2021/03/11 05:21:53;;;;;;;4.03;3.10;;;9.10;99.90;;;;;;5054658;28;20253;-64
2021/03/11 05:24:19;;;;;;;3.43;2.70;;;9.10;99.90;;;;;;5053832;28;20487;-63
2021/03/11 05:26:44;;;;;;;3.23;2.80;;;9.10;99.90;;;;;;5055847;28;20261;-64
2021/03/11 05:29:10;;;;;;;3.93;2.90;;;9.10;99.90;;;;;;5073725;28;20198;-65
2021/03/11 05:31:35;;;;;;;3.13;2.77;;;9.10;99.90;;;;;;5072434;28;20784;-64
2021/03/11 05:34:01;;;;;;;3.23;2.93;;;9.20;99.90;;;;;;5053692;28;20224;-64
2021/03/11 05:36:27;;;;;;;3.23;2.90;;;9.20;99.90;;;;;;5053365;28;20175;-65
2021/03/11 05:38:53;;;;;;;4.03;2.97;;;9.30;99.90;;;;;;5072485;28;20655;-64
2021/03/11 05:41:20;;;;;;;3.20;2.90;;;9.30;99.90;;;;;;5072874;28;20198;-65
2021/03/11 05:43:46;;;;;;;3.77;3.33;;;9.40;99.90;;;;;;5055400;28;20270;-65
2021/03/11 05:46:12;;;;;;;4.97;3.80;;;9.30;99.90;;;;;;5063433;28;20262;-63
2021/03/11 05:48:40;;;;;;;4.53;3.20;;;9.30;99.90;;;;;;5073094;28;20205;-64
2021/03/11 05:51:08;;;;;;;4.97;4.07;;;9.30;99.90;;;;;;5063692;28;20354;-64
2021/03/11 05:53:35;;;;;;;3.93;3.53;;;9.30;99.90;;;;;;5053188;28;20228;-64
2021/03/11 05:56:01;;;;;;;4.57;2.67;;;9.20;99.90;;;;;;5056903;28;20183;-65
2021/03/11 05:58:27;;;;;;;4.67;3.90;;;9.30;99.90;;;;;;5072940;28;20327;-64
2021/03/11 06:00:52;;;;;;;4.33;3.63;;;9.40;99.90;;;;;;5066206;28;20261;-64
2021/03/11 06:03:19;;;;;;;4.87;3.60;;;9.40;99.90;;;;;;5053088;28;20255;-64
2021/03/11 06:05:46;;;;;;;4.57;3.67;;;9.40;99.90;;;;;;5057462;28;20636;-65
2021/03/11 06:08:12;;;;;;;4.57;3.40;;;9.50;99.90;;;;;;5070838;28;20205;-64
2021/03/11 06:10:40;;;;;;;4.07;3.57;;;9.50;99.90;;;;;;5052267;28;20214;-64
2021/03/11 06:13:10;;;;;;;4.03;3.63;;;9.50;99.90;;;;;;5053145;28;20182;-65
2021/03/11 06:15:37;;;;;;;4.10;3.30;;;9.60;99.90;;;;;;5071495;28;20535;-65
2021/03/11 06:18:07;;;;;;;4.07;3.60;;;9.70;99.90;;;;;;5072702;28;20187;-63
2021/03/11 06:20:34;;;;;;;3.40;3.10;;;9.70;99.90;;;;;;5052481;28;20186;-64
2021/03/11 06:23:00;;;;;;;4.07;3.27;;;9.70;99.90;;;;;;5052800;28;20175;-65
2021/03/11 06:25:27;;;;;;;3.70;3.13;;;9.80;99.90;;;;;;5071054;28;20209;-65
2021/03/11 06:27:53;;;;;;;4.27;3.87;;;9.80;99.90;;;;;;5072651;28;20291;-65
2021/03/11 06:30:40;;;;;;;4.23;3.77;;;9.90;99.90;;;;;;5054847;28;20218;-65
2021/03/11 06:33:06;;;;;;;4.03;3.23;;;9.90;99.90;;;;;;5052530;28;20257;-65
2021/03/11 06:35:37;;;;;;;4.73;3.20;;;9.90;99.90;;;;;;5070324;28;20270;-64
2021/03/11 06:38:03;;;;;;;3.43;2.70;;;10.00;99.90;;;;;;5072251;28;20664;-65
2021/03/11 06:40:29;;;;;;;4.07;3.53;;;10.00;99.90;;;;;;5054153;28;20183;-64
2021/03/11 06:43:12;;;;;;;3.23;2.93;;;10.10;99.90;;;;;;5065278;28;20182;-65
2021/03/11 06:45:39;;;;;;;4.10;3.10;;;10.20;99.90;;;;;;5072224;28;20640;-65
2021/03/11 06:48:25;;;;;;;5.03;3.30;;;10.30;99.90;;;;;;5057850;28;20225;-65
2021/03/11 06:51:01;;;;;;;3.70;3.23;;;10.30;99.90;;;;;;5052043;28;20203;-65
2021/03/11 06:53:28;;;;;;;6.50;3.17;;;10.30;99.90;;;;;;5068022;28;20686;-65
2021/03/11 06:55:54;;;;;;;3.83;2.73;;;10.40;99.90;;;;;;5063106;28;20171;-64
2021/03/11 06:58:25;;;;;;;3.87;2.70;;;10.40;99.90;;;;;;5057373;28;20198;-64
2021/03/11 07:01:04;;;;;;;3.60;3.10;;;10.50;99.90;;;;;;5060347;28;20236;-65
2021/03/11 07:03:41;;;;;;;5.83;3.07;;;10.60;99.90;;;;;;5051774;28;20167;-64
2021/03/11 07:06:07;;;;;;;3.80;2.90;;;10.60;99.90;;;;;;5064084;28;20540;-65
2021/03/11 07:08:33;;;;;;;3.57;2.93;;;10.60;99.90;;;;;;5071782;28;20208;-64
2021/03/11 07:11:06;;;;;;;5.03;3.33;;;10.50;99.90;;;;;;5059736;28;20429;-64
2021/03/11 07:13:42;;;;;;;3.60;2.57;;;10.60;99.90;;;;;;5071023;28;20182;-65
2021/03/11 07:16:19;;;;;;;2.93;2.50;;;10.70;99.90;;;;;;5059121;28;20174;-64
2021/03/11 07:18:47;;;;;;;2.50;2.30;;;10.70;99.90;;;;;;5051415;28;20225;-64
2021/03/11 07:21:14;;;;;;;3.60;2.53;;;10.70;99.90;;;;;;5052355;28;20203;-64
2021/03/11 07:23:48;;;;;;;2.40;2.20;;;10.70;99.90;;;;;;5051513;28;20178;-65
2021/03/11 07:26:15;;;;;;;2.87;2.57;;;10.70;99.90;;;;;;5065055;28;20177;-64
2021/03/11 07:28:41;;;;;;;3.20;2.63;;;10.80;99.90;;;;;;5071245;28;20280;-65
2021/03/11 07:31:06;;;;;;;2.50;2.30;;;10.80;99.90;;;;;;5058578;28;20282;-64
2021/03/11 07:33:34;;;;;;;2.67;2.47;;;10.80;99.90;;;;;;5051205;28;20201;-64
2021/03/11 07:36:05;;;;;;;3.40;3.10;;;10.90;99.90;;;;;;5061897;28;20204;-64
2021/03/11 07:38:32;;;;;;;3.03;2.50;;;10.90;99.90;;;;;;5065941;28;20213;-64
2021/03/11 07:41:00;;;;;;;3.00;2.67;;;11.00;99.90;;;;;;5051041;28;20167;-64
2021/03/11 07:43:28;;;;;;;2.97;2.70;;;11.10;99.90;;;;;;5054974;28;20496;-63
2021/03/11 07:46:02;;;;;;;6.90;3.23;;;11.20;99.90;;;;;;5071293;28;20166;-64
2021/03/11 07:48:29;;;;;;;3.13;2.43;;;11.40;99.90;;;;;;5057151;28;20285;-64
2021/03/11 07:50:56;;;;;;;5.67;2.77;;;11.60;99.90;;;;;;5050324;28;20228;-65
2021/03/11 07:53:23;;;;;;;5.20;2.47;;;11.80;99.90;;;;;;5061009;28;20315;-64
2021/03/11 07:55:49;;;;;;;4.07;2.70;;;12.10;99.90;;;;;;5071180;28;20174;-64
2021/03/11 07:58:19;;;;;;;3.27;2.53;;;12.30;99.90;;;;;;5069079;28;20663;-64
2021/03/11 08:00:45;;;;;;;3.43;2.70;;;12.30;99.90;;;;;;5070881;28;20541;-64
2021/03/11 08:03:14;;;;;;;4.33;2.67;;;12.50;99.90;;;;;;5061230;28;20178;-65
2021/03/11 08:05:40;;;;;;;4.13;2.60;;;12.60;99.90;;;;;;5052441;28;20175;-67
2021/03/11 08:08:18;;;;;;;6.37;2.63;;;12.60;99.90;;;;;;5063043;28;20204;-65
2021/03/11 08:10:45;;;;;;;3.77;2.10;;;12.60;99.90;;;;;;5074844;28;20201;-66
2021/03/11 08:13:38;;;;;;;2.40;2.20;;;12.50;99.90;;;;;;5065312;28;20190;-66
2021/03/11 08:16:10;;;;;;;4.80;2.57;;;12.50;99.90;;;;;;5055266;28;20174;-66
2021/03/11 08:18:35;;;;;;;3.83;2.63;;;12.40;99.90;;;;;;5065531;28;20278;-66
2021/03/11 08:21:03;;;;;;;3.60;2.60;;;12.40;99.90;;;;;;5069510;28;20186;-66
2021/03/11 08:23:30;;;;;;;3.20;2.47;;;12.20;99.90;;;;;;5054851;28;20178;-66
2021/03/11 08:25:56;;;;;;;3.97;2.60;;;11.80;99.90;;;;;;5058409;28;20177;-66
2021/03/11 08:28:22;;;;;;;2.87;2.23;;;11.40;99.90;;;;;;5075050;28;20675;-67
2021/03/11 08:30:53;;;;;;;5.57;3.50;;;11.10;99.90;;;;;;5074337;28;20194;-66
2021/03/11 08:33:18;;;;;;;5.77;3.47;;;10.90;99.90;;;;;;5073866;28;20253;-65
2021/03/11 08:35:45;;;;;;;5.40;3.37;;;10.90;99.90;;;;;;5074694;28;20667;-66
2021/03/11 08:38:20;;;;;;;4.57;2.83;;;10.80;99.90;;;;;;5074431;28;20196;-66
2021/03/11 08:40:56;;;;;;;5.07;3.27;;;10.80;99.90;;;;;;5074730;28;20177;-66
2021/03/11 08:46:09;;;;;;;6.93;3.90;;;10.90;99.90;;;;;;5074444;28;20180;-67
2021/03/11 08:48:41;;;;;;;6.73;3.63;;;10.80;99.90;;;;;;5073830;28;20288;-66
2021/03/11 08:51:22;;;;;;;4.37;3.40;;;10.70;99.90;;;;;;5074017;28;20292;-64
2021/03/11 08:53:55;;;;;;;3.43;3.03;;;10.70;99.90;;;;;;5074207;28;20192;-65
2021/03/11 08:56:21;;;;;;;4.33;3.33;;;10.70;99.90;;;;;;5074135;28;20206;-65
2021/03/11 08:58:57;;;;;;;4.23;2.50;;;10.70;99.90;;;;;;5074209;28;20222;-63
2021/03/11 09:01:28;;;;;;;3.17;2.77;;;10.70;99.90;;;;;;5073325;28;20166;-65
2021/03/11 09:03:55;;;;;;;3.53;3.07;;;10.60;99.90;;;;;;5074267;28;20663;-65
2021/03/11 09:06:53;;;;;;;6.77;3.00;;;10.60;99.90;;;;;;5074071;28;20719;-66
2021/03/11 09:09:33;;;;;;;6.10;3.67;;;10.50;99.90;;;;;;5074151;28;20194;-66
2021/03/11 09:12:00;;;;;;;2.57;2.37;;;10.30;99.90;;;;;;5067137;28;20178;-66
2021/03/11 09:14:26;;;;;;;4.43;2.50;;;10.00;99.90;;;;;;5071947;28;20277;-67
2021/03/11 09:16:59;;;;;;;4.83;2.63;;;9.70;99.90;;;;;;5073474;28;20615;-67
2021/03/11 09:19:25;;;;;;;4.17;1.97;;;9.40;99.90;;;;;;5073250;28;20190;-65
2021/03/11 09:21:50;;;;;;;15.63;3.83;;;9.10;99.90;;;;;;5053682;28;20182;-66
2021/03/11 09:24:19;;;;;;;6.20;3.60;;;8.90;99.90;;;;;;5054310;28;20671;-66
2021/03/11 09:26:45;;;;;;;13.00;3.07;;;8.90;99.90;;;;;;5054285;28;20550;-65
2021/03/11 09:29:12;;;;;;;11.50;3.07;;;8.90;99.90;;;;;;5053933;28;20673;-65
2021/03/11 09:31:39;;;;;;;8.30;3.33;;;8.80;99.90;;;;;;5071806;28;20220;-66
2021/03/11 09:34:05;;;;;;;9.03;3.20;;;8.80;99.90;;;;;;5068200;28;20182;-65
2021/03/11 09:36:31;;;;;;;11.03;3.27;;;9.00;99.90;;;;;;5073636;28;20174;-65
2021/03/11 09:39:05;;;;;;;11.13;3.43;;;9.00;99.90;;;;;;5059066;28;20207;-66
2021/03/11 09:41:31;;;;;;;9.37;3.80;;;9.10;99.90;;;;;;5052269;28;20182;-66
2021/03/11 09:44:04;;;;;;;10.20;4.03;;;9.10;99.90;;;;;;5067851;28;20174;-65
2021/03/11 09:46:29;;;;;;;16.60;3.20;;;9.20;99.90;;;;;;5073541;28;20533;-66
2021/03/11 09:48:57;;;;;;;4.27;2.80;;;9.40;99.90;;;;;;5069052;28;20419;-65
2021/03/11 09:51:26;;;;;;;11.73;4.73;;;9.60;99.90;;;;;;5072081;28;20170;-66
2021/03/11 09:53:57;;;;;;;12.10;3.17;;;10.20;99.90;;;;;;5057269;28;20182;-67
2021/03/11 09:56:31;;;;;;;8.90;2.97;;;10.90;99.90;;;;;;5052564;28;20520;-66
2021/03/11 09:59:04;;;;;;;13.67;3.23;;;11.60;99.90;;;;;;5065750;28;20206;-67
2021/03/11 10:01:42;;;;;;;11.13;3.90;;;12.10;99.90;;;;;;5064318;28;20187;-67
2021/03/11 10:04:19;;;;;;;8.87;2.93;;;12.50;99.90;;;;;;5053397;28;20175;-66
2021/03/11 10:06:59;;;;;;;10.43;2.73;;;12.70;99.90;;;;;;5063153;28;20234;-65
2021/03/11 10:09:35;;;;;;;6.30;2.10;;;13.00;99.90;;;;;;5072502;28;20689;-66
2021/03/11 10:12:01;;;;;;;10.30;3.00;;;13.20;99.90;;;;;;5060457;28;20201;-66
2021/03/11 10:14:28;;;;;;;6.77;2.57;;;13.40;99.90;;;;;;5052391;28;20633;-64
2021/03/11 10:16:59;;;;;;;9.60;2.67;;;13.70;99.90;;;;;;5063310;28;20193;-65
2021/03/11 10:19:36;;;;;;;9.17;2.70;;;14.00;99.90;;;;;;5072589;28;20194;-64
2021/03/11 10:22:06;;;;;;;4.97;2.20;;;14.20;99.90;;;;;;5061113;28;20654;-65
2021/03/11 10:24:43;;;;;;;7.10;2.60;;;14.30;99.90;;;;;;5052396;28;20175;-66
2021/03/11 10:27:24;;;;;;;11.03;2.40;;;14.40;99.90;;;;;;5064030;28;20189;-66
2021/03/11 10:30:06;;;;;;;9.97;2.53;;;14.50;99.90;;;;;;5061633;28;20215;-66
2021/03/11 10:32:33;;;;;;;8.27;2.80;;;14.70;99.90;;;;;;5052145;28;20324;-64
2021/03/11 10:34:58;;;;;;;6.83;2.17;;;14.90;99.90;;;;;;5062174;28;20182;-65
2021/03/11 10:37:25;;;;;;;4.80;1.73;;;15.00;99.90;;;;;;5072229;28;20219;-66
2021/03/11 10:39:53;;;;;;;6.20;2.30;;;15.10;99.90;;;;;;5063383;28;20207;-66
2021/03/11 10:42:18;;;;;;;9.03;2.13;;;15.20;99.90;;;;;;5051770;28;20206;-65
2021/03/11 10:44:56;;;;;;;8.13;2.57;;;15.20;99.90;;;;;;5059038;28;20271;-67
2021/03/11 10:47:23;;;;;;;5.30;2.00;;;15.20;99.90;;;;;;5072245;28;20201;-65
2021/03/11 10:49:49;;;;;;;3.40;1.77;;;15.30;99.90;;;;;;5064421;28;20291;-65
2021/03/11 10:52:17;;;;;;;6.93;2.40;;;15.40;99.90;;;;;;5052172;28;20206;-65
2021/03/11 10:54:43;;;;;;;7.03;2.30;;;15.40;99.90;;;;;;5057303;28;20319;-64
2021/03/11 10:57:11;;;;;;;5.80;1.93;;;15.50;99.90;;;;;;5070749;28;20476;-64
2021/03/11 10:59:53;;;;;;;7.60;2.00;;;15.30;99.90;;;;;;5051817;28;20204;-65
2021/03/11 11:02:25;;;;;;;3.07;1.93;;;15.60;99.90;;;;;;5053483;28;20210;-64
2021/03/11 11:04:51;;;;;;;4.43;1.67;;;15.80;99.90;;;;;;5071859;28;20176;-65
2021/03/11 11:07:18;;;;;;;11.00;2.13;;;15.80;99.90;;;;;;5070063;28;20313;-65
2021/03/11 11:09:43;;;;;;;4.77;1.60;;;15.60;99.90;;;;;;5071397;28;20206;-64
2021/03/11 11:12:16;;;;;;;6.83;2.00;;;16.10;99.90;;;;;;5066315;28;20175;-65
2021/03/11 11:14:45;;;;;;;6.60;2.10;;;16.30;99.90;;;;;;5052725;28;20203;-65
2021/03/11 11:17:12;;;;;;;7.73;1.87;;;16.30;99.90;;;;;;5056606;28;20638;-65
2021/03/11 11:19:39;;;;;;;7.00;1.83;;;15.80;99.90;;;;;;5069051;28;20194;-64
2021/03/11 11:22:05;;;;;;;3.27;2.07;;;15.90;99.90;;;;;;5051168;28;20193;-66
2021/03/11 11:24:31;;;;;;;5.10;2.33;;;16.20;99.90;;;;;;5051905;28;20175;-65
2021/03/11 11:26:57;;;;;;;5.47;2.27;;;15.70;99.90;;;;;;5071688;28;20178;-67
2021/03/11 11:29:23;;;;;;;7.17;2.20;;;15.60;99.90;;;;;;5070940;28;20717;-66
2021/03/11 11:31:49;;;;;;;8.20;2.80;;;15.70;99.90;;;;;;5051818;28;20179;-67
2021/03/11 11:34:15;;;;;;;8.07;2.63;;;15.70;99.90;;;;;;5051426;28;20654;-65
2021/03/11 11:36:42;;;;;;;8.27;2.40;;;15.90;99.90;;;;;;5068715;28;20264;-65
2021/03/11 11:39:08;;;;;;;6.13;2.37;;;16.10;99.90;;;;;;5071445;28;20205;-65
2021/03/11 11:41:36;;;;;;;9.67;2.90;;;16.10;99.90;;;;;;5054258;28;20193;-66
2021/03/11 11:44:01;;;;;;;7.23;2.17;;;16.10;99.90;;;;;;5051440;28;20170;-65
2021/03/11 11:46:27;;;;;;;8.20;2.37;;;16.00;99.90;;;;;;5051619;28;20548;-64
2021/03/11 11:48:53;;;;;;;4.50;2.93;;;16.00;99.90;;;;;;5051154;28;20263;-64
2021/03/11 11:51:19;;;;;;;9.83;2.73;;;15.90;99.90;;;;;;5063408;28;20204;-65
2021/03/11 11:53:44;;;;;;;8.00;2.30;;;15.50;99.90;;;;;;5071288;28;20578;-65
2021/03/11 11:56:10;;;;;;;9.13;3.60;;;15.50;99.90;;;;;;5060111;28;20183;-65
2021/03/11 11:58:37;;;;;;;9.67;3.20;;;15.60;99.90;;;;;;5050779;28;20206;-65
2021/03/11 12:01:03;;;;;;;5.20;3.20;;;15.70;99.90;;;;;;5059384;28;20182;-65
2021/03/11 12:03:28;;;;;;;5.00;2.00;;;15.80;99.90;;;;;;5057348;28;20257;-66
2021/03/11 12:05:54;;;;;;;7.23;2.20;;;15.80;99.90;;;;;;5058103;28;20648;-66
2021/03/11 12:08:19;;;;;;;9.80;2.67;;;15.80;99.90;;;;;;5070674;28;20197;-64
2021/03/11 12:10:45;;;;;;;8.20;2.67;;;15.30;99.90;;;;;;5068820;28;20210;-65
2021/03/11 12:13:10;;;;;;;6.27;2.63;;;15.00;99.90;;;;;;5060325;28;20628;-64
2021/03/11 12:15:36;;;;;;;9.50;3.00;;;15.50;99.90;;;;;;5070710;28;20174;-64
2021/03/11 12:18:02;;;;;;;9.60;2.50;;;16.00;99.90;;;;;;5056626;28;20190;-64
2021/03/11 12:20:28;;;;;;;6.73;2.37;;;16.30;99.90;;;;;;5049832;28;20232;-65
2021/03/11 12:22:53;;;;;;;11.20;3.10;;;16.00;99.90;;;;;;5051036;28;20186;-65
2021/03/11 12:25:19;;;;;;;6.87;2.27;;;16.00;99.90;;;;;;5050766;28;20615;-65
2021/03/11 12:27:45;;;;;;;5.73;2.00;;;16.10;99.90;;;;;;5050940;28;20202;-65
2021/03/11 12:30:11;;;;;;;5.67;2.20;;;15.90;99.90;;;;;;5050614;28;20241;-65
2021/03/11 12:32:37;;;;;;;6.80;3.03;;;16.00;99.90;;;;;;5066123;28;20186;-64
2021/03/11 12:35:04;;;;;;;9.17;2.30;;;16.00;99.90;;;;;;5070836;28;20174;-64
2021/03/11 12:37:30;;;;;;;7.30;2.67;;;16.20;99.90;;;;;;5055674;28;20175;-64
2021/03/11 12:39:56;;;;;;;3.57;1.77;;;16.20;99.90;;;;;;5058557;28;20197;-65
2021/03/11 12:42:22;;;;;;;5.70;1.83;;;16.10;99.90;;;;;;5069977;28;20197;-66
2021/03/11 12:44:48;;;;;;;7.43;2.37;;;16.00;99.90;;;;;;5063474;28;20210;-65
2021/03/11 12:47:15;;;;;;;5.53;2.00;;;16.10;99.90;;;;;;5050619;28;20702;-65
2021/03/11 12:49:41;;;;;;;7.27;1.83;;;16.30;99.90;;;;;;5054995;28;20232;-64
2021/03/11 12:52:06;;;;;;;7.80;2.37;;;16.20;99.90;;;;;;5070966;28;20192;-66
2021/03/11 12:54:32;;;;;;;5.27;1.80;;;16.10;99.90;;;;;;5070322;28;20651;-64
2021/03/11 12:56:57;;;;;;;4.83;1.97;;;15.80;99.90;;;;;;5054470;28;20529;-66
2021/03/11 12:59:23;;;;;;;6.23;2.10;;;15.70;99.90;;;;;;5055221;28;20661;-66